createdAt,value
2023-04-18T00:12:54.890Z,21.65
2023-04-18T00:20:28.856Z,23.58
2023-04-18T00:28:04.376Z,23.87
2023-04-18T00:43:35.224Z,20.70
2023-04-18T00:51:11.034Z,17.00
2023-04-18T00:58:46.591Z,21.55
2023-04-18T01:06:20.864Z,19.05
2023-04-18T01:14:03.912Z,20.63
2023-04-18T01:21:41.938Z,21.08
2023-04-18T01:29:17.357Z,19.55
2023-04-18T01:36:51.305Z,18.20
2023-04-18T01:44:26.675Z,20.07
2023-04-18T01:52:01.021Z,21.58
2023-04-18T01:59:36.549Z,16.15
2023-04-18T02:07:10.764Z,16.55
2023-04-18T02:14:45.990Z,17.95
2023-04-18T02:22:20.162Z,20.95
2023-04-18T02:29:55.643Z,19.27
2023-04-18T02:37:29.620Z,17.30
2023-04-18T02:45:05.546Z,23.10
2023-04-18T02:52:39.331Z,17.95
2023-04-18T03:00:16.225Z,21.90
2023-04-18T03:07:50.268Z,20.60
2023-04-18T03:15:25.573Z,22.33
2023-04-18T03:22:59.727Z,17.58
2023-04-18T03:30:35.225Z,18.97
2023-04-18T03:38:09.342Z,23.52
2023-04-18T03:45:47.945Z,20.42
2023-04-18T03:53:22.005Z,21.65
2023-04-18T04:00:57.565Z,17.07
2023-04-18T04:08:31.565Z,23.05
2023-04-18T04:16:08.610Z,19.83
2023-04-18T04:23:43.200Z,24.17
2023-04-18T04:38:52.979Z,17.33
2023-04-18T04:46:30.922Z,18.60
2023-04-18T04:54:05.629Z,20.77
2023-04-18T05:01:40.999Z,19.83
2023-04-18T05:09:15.098Z,21.35
2023-04-18T05:16:50.482Z,17.80
2023-04-18T05:24:24.342Z,20.02
2023-04-18T05:31:59.759Z,21.50
2023-04-18T05:39:34.512Z,23.48
2023-04-18T05:47:09.959Z,23.20
2023-04-18T05:54:44.130Z,23.42
2023-04-18T06:02:19.569Z,25.73
2023-04-18T06:09:54.713Z,22.42
2023-04-18T06:17:30.317Z,19.23
2023-04-18T06:25:04.636Z,18.80
2023-04-18T06:32:40.530Z,17.35
2023-04-18T06:40:15.248Z,24.33
2023-04-18T06:55:25.793Z,18.67
2023-04-18T07:03:02.241Z,21.53
2023-04-18T07:10:36.268Z,17.10
2023-04-18T07:18:12.481Z,19.43
2023-04-18T07:25:49.588Z,20.60
2023-04-18T07:33:25.118Z,22.63
2023-04-18T07:40:59.723Z,22.42
2023-04-18T07:48:35.347Z,19.50
2023-04-18T07:56:09.195Z,17.02
2023-04-18T08:03:44.702Z,26.10
2023-04-18T08:11:18.798Z,24.75
2023-04-18T08:18:54.186Z,16.47
2023-04-18T08:26:28.394Z,19.25
2023-04-18T08:34:05.105Z,18.37
2023-04-18T08:41:39.225Z,18.80
2023-04-18T08:49:14.765Z,19.27
2023-04-18T08:56:49.197Z,17.15
2023-04-18T09:04:38.545Z,17.53
2023-04-18T09:12:14.510Z,17.00
2023-04-18T09:19:50.721Z,17.77
2023-04-18T09:27:25.861Z,22.83
2023-04-18T09:35:04.994Z,22.55
2023-04-18T09:42:39.033Z,20.80
2023-04-18T09:50:16.552Z,19.07
2023-04-18T09:57:53.924Z,18.50
2023-04-18T10:05:32.890Z,18.42
2023-04-18T10:13:08.537Z,18.35
2023-04-18T10:20:44.598Z,15.52
2023-04-18T10:28:21.055Z,17.23
2023-04-18T10:36:02.186Z,17.00
2023-04-18T10:44:14.764Z,18.40
2023-04-18T10:51:51.245Z,17.95
2023-04-18T10:59:26.871Z,16.85
2023-04-18T11:07:03.104Z,17.70
2023-04-18T11:14:43.828Z,18.75
2023-04-18T11:22:19.524Z,16.60
2023-04-18T11:29:54.467Z,15.68
2023-04-18T11:45:03.905Z,18.93
2023-04-18T11:52:41.212Z,15.63
2023-04-18T12:00:16.553Z,15.18
2023-04-18T12:07:52.208Z,16.83
2023-04-18T12:15:28.249Z,14.77
2023-04-18T12:23:04.509Z,14.18
2023-04-18T12:30:38.330Z,12.00
2023-04-18T12:38:13.777Z,14.90
2023-04-18T12:45:48.480Z,15.02
2023-04-18T12:53:24.119Z,13.15
2023-04-18T13:00:59.039Z,16.20
2023-04-18T13:16:09.395Z,19.23
2023-04-18T13:23:44.822Z,17.63
2023-04-18T13:31:18.702Z,19.50
2023-04-18T13:38:54.450Z,16.52
2023-04-18T13:46:29.118Z,17.30
2023-04-18T13:54:04.953Z,15.55
2023-04-18T14:01:39.345Z,18.20
2023-04-18T14:09:14.921Z,15.80
2023-04-18T14:16:49.001Z,19.75
2023-04-18T14:24:24.446Z,15.77
2023-04-18T14:31:58.365Z,14.90
2023-04-18T14:39:33.807Z,17.90
2023-04-18T14:47:07.846Z,15.13
2023-04-18T14:54:44.015Z,16.50
2023-04-18T15:02:18.210Z,13.45
2023-04-18T15:09:54.403Z,12.93
2023-04-18T15:17:29.342Z,11.98
2023-04-18T15:40:36.164Z,13.02
2023-04-18T15:48:10.107Z,9.52
2023-04-18T15:55:46.632Z,9.70
2023-04-18T16:03:21.003Z,11.02
2023-04-18T16:10:56.452Z,7.47
2023-04-18T16:18:30.696Z,8.13
2023-04-18T16:26:06.523Z,9.17
2023-04-18T16:33:40.609Z,6.15
2023-04-18T16:41:15.770Z,5.27
2023-04-18T16:48:51.805Z,5.25
2023-04-18T16:56:27.608Z,5.03
2023-04-18T17:04:01.413Z,4.70
2023-04-18T17:11:39.537Z,4.82
2023-04-18T17:19:13.974Z,5.32
2023-04-18T17:26:50.170Z,6.07
2023-04-18T17:34:24.253Z,5.50
2023-04-18T17:42:00.255Z,4.90
2023-04-18T17:49:35.060Z,6.93
2023-04-18T17:57:10.956Z,7.80
2023-04-18T18:04:44.997Z,8.07
2023-04-18T18:12:20.357Z,5.17
2023-04-18T18:19:54.211Z,6.43
2023-04-18T18:27:29.462Z,9.38
2023-04-18T18:35:05.606Z,7.28
2023-04-18T18:42:41.804Z,9.93
2023-04-18T18:50:15.631Z,8.25
2023-04-18T18:57:51.531Z,6.68
2023-04-18T19:05:25.838Z,8.63
2023-04-18T19:13:01.717Z,9.40
2023-04-18T19:20:35.649Z,9.68
2023-04-18T19:28:10.915Z,6.80
2023-04-18T19:35:44.725Z,7.50
2023-04-18T19:43:19.946Z,7.65
2023-04-18T19:50:53.770Z,5.68
2023-04-18T19:58:39.796Z,8.77
2023-04-18T20:06:14.269Z,5.38
2023-04-18T20:13:49.734Z,6.72
2023-04-18T20:21:23.780Z,8.52
2023-04-18T20:28:59.080Z,8.67
2023-04-18T20:36:34.427Z,8.13
2023-04-18T20:44:10.257Z,9.48
2023-04-18T20:51:44.114Z,6.13
2023-04-18T20:59:20.042Z,8.85
2023-04-18T21:06:54.195Z,11.02
2023-04-18T21:14:30.703Z,8.37
2023-04-18T21:22:04.617Z,11.38
2023-04-18T21:29:39.892Z,11.97
2023-04-18T21:37:13.746Z,10.60
2023-04-18T21:44:48.962Z,9.77
2023-04-18T21:52:22.879Z,8.85
2023-04-18T21:59:58.941Z,11.60
2023-04-18T22:07:34.183Z,12.23
2023-04-18T22:15:11.624Z,10.38
2023-04-18T22:22:45.720Z,10.40
2023-04-18T22:30:21.393Z,9.73
2023-04-18T22:37:56.375Z,7.85
2023-04-18T22:45:31.630Z,8.10
2023-04-18T22:53:06.153Z,7.95
2023-04-18T23:00:41.520Z,9.15
2023-04-18T23:08:18.806Z,10.07
2023-04-18T23:15:54.214Z,8.15
2023-04-18T23:23:28.196Z,7.85
2023-04-18T23:31:03.788Z,7.43
2023-04-18T23:38:38.537Z,7.93
2023-04-18T23:53:48.245Z,7.30
